Time;durP1;ratioP1;P1;durP2;ratioP2;P2;SDS_P1;SDS_P2;PMS_P1;PMS_P2;Temp;Humidity;BMP_temperature;BMP_pressure;BME280_temperature;BME280_humidity;BME280_pressure;Samples;Min_cycle;Max_cycle;Signal;HPM_P1;HPM_P2
2022/10/04 00:00:03;;;;;;;4.97;1.40;;;;;;;10.75;79.44;98677.97;5082903;28;20036;-80
2022/10/04 00:02:32;;;;;;;4.20;1.60;;;;;;;10.75;79.44;98675.25;5064462;28;20531;-80
2022/10/04 00:05:04;;;;;;;6.93;1.77;;;;;;;10.75;79.88;98674.44;5083247;28;20032;-79
2022/10/04 00:07:36;;;;;;;5.25;1.42;;;;;;;10.76;80.07;98678.81;5082354;28;20036;-78
2022/10/04 00:10:02;;;;;;;4.72;1.38;;;;;;;10.76;79.96;98679.63;5080053;28;20035;-78
2022/10/04 00:12:35;;;;;;;4.28;1.40;;;;;;;10.75;79.89;98672.50;5081081;28;20130;-79
2022/10/04 00:15:06;;;;;;;5.97;1.40;;;;;;;10.73;79.14;98674.72;5083658;28;20032;-79
2022/10/04 00:17:35;;;;;;;5.63;1.40;;;;;;;10.73;79.43;98674.72;5080339;28;20119;-79
2022/10/04 00:20:03;;;;;;;5.95;1.50;;;;;;;10.72;79.79;98673.91;5080921;28;20036;-79
2022/10/04 00:22:31;;;;;;;6.32;1.50;;;;;;;10.72;79.67;98668.41;5082879;28;20044;-79
2022/10/04 00:25:12;;;;;;;3.78;1.33;;;;;;;10.69;79.62;98663.50;5082564;28;20040;-79
2022/10/04 00:27:58;;;;;;;5.32;1.80;;;;;;;10.70;79.88;98665.16;5081227;28;20141;-79
2022/10/04 00:30:24;;;;;;;4.43;1.48;;;;;;;10.68;79.57;98677.50;5062159;28;20094;-79
2022/10/04 00:33:01;;;;;;;7.35;1.60;;;;;;;10.63;78.88;98670.16;5082753;28;20400;-80
2022/10/04 00:35:26;;;;;;;4.60;1.65;;;;;;;10.63;79.53;98669.34;5081257;28;20100;-81
2022/10/04 00:38:07;;;;;;;3.85;1.58;;;;;;;10.62;79.41;98671.28;5078450;28;20048;-80
2022/10/04 00:40:38;;;;;;;8.38;1.48;;;;;;;10.60;79.41;98664.47;5080235;28;20040;-78
2022/10/04 00:43:09;;;;;;;4.93;1.58;;;;;;;10.59;79.34;98655.41;5082435;28;20081;-78
2022/10/04 00:45:45;;;;;;;5.05;1.80;;;;;;;10.61;79.84;98660.56;5082576;28;20117;-78
2022/10/04 00:48:16;;;;;;;4.88;1.40;;;;;;;10.62;79.28;98667.69;5081260;28;20046;-78
2022/10/04 00:50:50;;;;;;;4.57;1.30;;;;;;;10.63;79.58;98666.59;5078070;28;20040;-78
2022/10/04 00:53:29;;;;;;;6.43;1.50;;;;;;;10.64;79.67;98670.97;5077737;28;20028;-78
2022/10/04 00:56:01;;;;;;;4.77;1.43;;;;;;;10.64;79.66;98666.31;5082232;28;20059;-77
2022/10/04 00:58:33;;;;;;;5.90;1.45;;;;;;;10.65;80.40;98661.63;5081789;28;20510;-77
2022/10/04 01:01:01;;;;;;;5.68;1.58;;;;;;;10.65;80.28;98656.16;5083406;28;20035;-77
2022/10/04 01:03:38;;;;;;;6.95;1.65;;;;;;;10.66;79.38;98664.09;5065698;28;20121;-77
2022/10/04 01:06:07;;;;;;;4.07;1.60;;;;;;;10.68;79.58;98661.88;5085339;28;20036;-79
2022/10/04 01:08:53;;;;;;;4.88;1.42;;;;;;;10.67;79.26;98663.00;5081770;28;20051;-80
2022/10/04 01:11:34;;;;;;;4.93;1.42;;;;;;;10.69;79.29;98657.19;5080973;28;20419;-79
2022/10/04 01:14:19;;;;;;;6.43;1.40;;;;;;;10.69;79.50;98647.06;5083770;28;20036;-79
2022/10/04 01:16:45;;;;;;;3.97;1.33;;;;;;;10.69;79.67;98658.03;5085450;28;20028;-80
2022/10/04 01:19:27;;;;;;;3.13;1.42;;;;;;;10.69;79.15;98658.03;5083660;28;20074;-80
2022/10/04 01:22:09;;;;;;;4.50;1.40;;;;;;;10.70;79.69;98651.44;5066908;28;20500;-81
2022/10/04 01:24:42;;;;;;;4.22;1.20;;;;;;;10.70;80.03;98654.19;5081399;28;20031;-81
2022/10/04 01:27:30;;;;;;;4.53;1.50;;;;;;;10.68;79.82;98658.31;5082562;28;20145;-80
2022/10/04 01:29:55;;;;;;;4.40;1.65;;;;;;;10.67;79.83;98648.44;5066375;28;20040;-80
2022/10/04 01:32:22;;;;;;;4.18;1.45;;;;;;;10.66;79.64;98650.38;5083732;28;20521;-80
2022/10/04 01:34:47;;;;;;;5.85;1.33;;;;;;;10.65;79.11;98647.91;5083659;28;20020;-80
2022/10/04 01:37:13;;;;;;;4.45;1.85;;;;;;;10.63;78.96;98648.22;5085360;28;20035;-79
2022/10/04 01:39:39;;;;;;;4.22;1.55;;;;;;;10.65;79.27;98659.72;5081558;28;20043;-80
2022/10/04 01:42:35;;;;;;;6.93;1.67;;;;;;;10.63;79.25;98661.09;5083627;28;20483;-80
2022/10/04 01:45:25;;;;;;;6.20;1.42;;;;;;;10.58;80.02;98651.03;5078980;28;20047;-80
2022/10/04 01:47:56;;;;;;;6.38;2.05;;;;;;;10.55;79.27;98644.22;5083394;28;20061;-80
2022/10/04 01:50:34;;;;;;;3.45;1.35;;;;;;;10.54;79.48;98648.06;5082313;28;20093;-81
2022/10/04 01:53:21;;;;;;;7.45;1.92;;;;;;;10.53;80.09;98643.69;5080619;28;20130;-81
2022/10/04 01:55:52;;;;;;;6.47;1.50;;;;;;;10.52;79.79;98644.78;5081082;28;20102;-80
2022/10/04 01:58:24;;;;;;;3.85;1.63;;;;;;;10.54;80.09;98648.06;5082432;28;20032;-80
2022/10/04 02:01:03;;;;;;;6.28;1.50;;;;;;;10.55;79.18;98649.69;5082845;28;20051;-80
2022/10/04 02:03:34;;;;;;;6.43;1.60;;;;;;;10.58;80.04;98653.75;5080533;28;20045;-80
2022/10/04 02:06:04;;;;;;;6.00;1.45;;;;;;;10.60;79.90;98648.00;5084705;28;20047;-81
2022/10/04 02:08:33;;;;;;;6.50;1.77;;;;;;;10.57;80.01;98643.91;5085364;28;20036;-75
2022/10/04 02:11:01;;;;;;;7.63;2.10;;;;;;;10.54;79.42;98645.31;5082756;28;20042;-76
2022/10/04 02:13:34;;;;;;;7.10;1.73;;;;;;;10.55;79.97;98643.38;5080558;28;20036;-76
2022/10/04 02:16:01;;;;;;;7.75;1.88;;;;;;;10.57;79.63;98646.66;5084183;28;20073;-77
2022/10/04 02:18:28;;;;;;;8.00;2.15;;;;;;;10.56;79.48;98643.09;5084043;28;20439;-76
2022/10/04 02:20:55;;;;;;;5.25;1.90;;;;;;;10.60;79.76;98637.03;5081906;28;20805;-77
2022/10/04 02:23:22;;;;;;;7.28;2.05;;;;;;;10.60;80.02;98637.84;5079859;28;20139;-78
2022/10/04 02:25:48;;;;;;;4.45;1.80;;;;;;;10.62;80.23;98652.06;5080130;28;20024;-77
2022/10/04 02:28:15;;;;;;;4.45;1.80;;;;;;;10.64;79.58;98644.38;5081372;28;20293;-77
2022/10/04 02:33:47;;;;;;;7.53;1.88;;;;;;;10.66;80.00;98641.31;5081260;28;20116;-77
2022/10/04 02:36:13;;;;;;;4.07;1.60;;;;;;;10.67;80.20;98642.97;5080366;28;20024;-81
2022/10/04 02:38:54;;;;;;;6.00;1.80;;;;;;;10.67;79.73;98646.53;5084501;28;20361;-77
2022/10/04 02:41:30;;;;;;;5.18;1.58;;;;;;;10.69;79.44;98641.56;5080229;28;20036;-77
2022/10/04 02:44:11;;;;;;;6.25;1.60;;;;;;;10.69;79.88;98636.09;5081681;28;20534;-78
2022/10/04 02:47:02;;;;;;;7.10;2.00;;;;;;;10.69;80.00;98641.56;5083143;28;20057;-77
2022/10/04 02:49:40;;;;;;;6.75;1.70;;;;;;;10.68;79.68;98644.59;5083127;28;20036;-78
2022/10/04 02:52:18;;;;;;;3.97;1.75;;;;;;;10.66;79.54;98647.63;5082316;28;20081;-78
2022/10/04 02:55:06;;;;;;;6.65;2.05;;;;;;;10.66;79.84;98642.16;5079875;28;20087;-78
2022/10/04 02:57:34;;;;;;;4.45;1.60;;;;;;;10.69;79.49;98640.75;5083832;28;20027;-77
2022/10/04 03:00:11;;;;;;;4.72;1.80;;;;;;;10.69;79.88;98636.09;5065808;28;20028;-77
2022/10/04 03:02:38;;;;;;;6.90;1.70;;;;;;;10.70;79.63;98642.38;5081449;28;20024;-78
2022/10/04 03:05:11;;;;;;;4.90;1.80;;;;;;;10.73;80.09;98647.28;5084335;28;20590;-77
2022/10/04 03:07:38;;;;;;;7.97;2.25;;;;;;;10.69;79.72;98647.06;5082096;28;20035;-79
2022/10/04 03:10:10;;;;;;;6.85;2.20;;;;;;;10.69;79.24;98640.75;5083338;28;20075;-78
2022/10/04 03:12:37;;;;;;;5.22;1.42;;;;;;;10.70;79.97;98650.59;5082203;28;20028;-78
2022/10/04 03:15:07;;;;;;;4.53;1.50;;;;;;;10.68;80.02;98647.34;5083944;28;20032;-79
2022/10/04 03:17:33;;;;;;;5.82;1.50;;;;;;;10.69;79.24;98643.47;5083059;28;20101;-79
2022/10/04 03:20:00;;;;;;;4.32;1.65;;;;;;;10.68;79.25;98655.56;5083069;28;20055;-79
2022/10/04 03:22:25;;;;;;;6.55;2.20;;;;;;;10.69;78.92;98652.53;5083430;28;20035;-79
2022/10/04 03:24:54;;;;;;;5.97;1.50;;;;;;;10.71;79.61;98660.47;5081596;28;20020;-79
2022/10/04 03:27:24;;;;;;;5.75;1.50;;;;;;;10.72;80.06;98664.84;5080034;28;20610;-79
2022/10/04 03:29:49;;;;;;;5.70;1.55;;;;;;;10.69;79.57;98663.50;5079920;28;20033;-78
2022/10/04 03:32:18;;;;;;;4.82;1.65;;;;;;;10.70;79.68;98667.06;5065503;28;20035;-79
2022/10/04 03:34:57;;;;;;;6.45;2.28;;;;;;;10.70;79.61;98667.06;5083905;28;20055;-79
2022/10/04 03:37:24;;;;;;;4.97;1.70;;;;;;;10.71;79.98;98669.53;5079443;28;20063;-79
2022/10/04 03:39:54;;;;;;;5.10;2.40;;;;;;;10.67;79.25;98660.25;5083238;28;20020;-79
2022/10/04 03:42:24;;;;;;;5.85;1.77;;;;;;;10.68;79.21;98658.31;5082835;28;20024;-79
2022/10/04 03:44:53;;;;;;;6.43;1.88;;;;;;;10.67;79.67;98656.66;5061714;28;20035;-78
2022/10/04 03:47:26;;;;;;;5.03;1.80;;;;;;;10.66;79.38;98666.84;5082122;28;20487;-79
2022/10/04 03:49:54;;;;;;;4.32;1.67;;;;;;;10.65;79.07;98667.94;5061647;28;20028;-79
2022/10/04 03:52:27;;;;;;;7.00;2.00;;;;;;;10.66;79.59;98663.25;5080224;28;20025;-79
2022/10/04 03:54:56;;;;;;;6.03;1.88;;;;;;;10.64;79.88;98660.81;5079530;28;20634;-79
2022/10/04 03:57:22;;;;;;;4.68;1.52;;;;;;;10.66;79.43;98664.09;5083079;28;20063;-78
2022/10/04 03:59:48;;;;;;;5.80;1.83;;;;;;;10.63;79.98;98658.34;5081689;28;20020;-78
2022/10/04 04:02:37;;;;;;;5.80;1.73;;;;;;;10.59;79.94;98665.56;5079546;28;20027;-78
2022/10/04 04:05:14;;;;;;;6.70;1.85;;;;;;;10.58;79.69;98667.47;5083334;28;20519;-78
2022/10/04 04:07:48;;;;;;;5.00;1.75;;;;;;;10.55;79.69;98654.34;5080082;28;20124;-79
2022/10/04 04:10:20;;;;;;;5.93;1.70;;;;;;;10.55;79.13;98665.31;5075371;28;20035;-78
2022/10/04 04:13:03;;;;;;;6.03;1.80;;;;;;;10.52;79.73;98655.75;5078575;28;20032;-78
2022/10/04 04:15:33;;;;;;;5.90;1.40;;;;;;;10.52;80.01;98671.38;5083448;28;20032;-78
2022/10/04 04:18:04;;;;;;;6.22;1.92;;;;;;;10.49;79.21;98661.81;5083590;28;20043;-79
2022/10/04 04:20:35;;;;;;;4.72;1.58;;;;;;;10.47;79.64;98668.69;5080102;28;20035;-78
2022/10/04 04:23:22;;;;;;;4.70;1.70;;;;;;;10.43;79.34;98671.19;5082196;28;20032;-78
2022/10/04 04:25:54;;;;;;;6.22;2.30;;;;;;;10.40;80.04;98667.09;5078304;28;20116;-78
2022/10/04 04:28:26;;;;;;;7.63;1.70;;;;;;;10.39;79.61;98662.72;5076975;28;20039;-79
2022/10/04 04:31:01;;;;;;;6.38;1.95;;;;;;;10.37;80.11;98659.44;5076986;28;20090;-78
2022/10/04 04:33:40;;;;;;;4.93;1.80;;;;;;;10.37;79.10;98680.56;5082834;28;20044;-78
2022/10/04 04:36:09;;;;;;;4.60;1.98;;;;;;;10.35;79.37;98678.13;5083006;28;20050;-78
2022/10/04 04:39:32;;;;;;;4.57;2.13;;;;;;;10.35;79.19;98674.53;5086475;28;20040;-78
2022/10/04 04:41:22;;;;;;;5.75;1.88;;;;;;;10.35;79.31;98680.84;5084646;28;20036;-79
2022/10/04 04:43:49;;;;;;;8.57;2.30;;;;;;;10.36;80.04;98677.00;5087249;28;20086;-77
2022/10/04 04:46:15;;;;;;;9.82;2.63;;;;;;;10.37;79.90;98675.06;5084849;28;20051;-77
2022/10/04 04:48:44;;;;;;;7.50;1.98;;;;;;;10.39;79.77;98672.88;5083358;28;20156;-78
2022/10/04 04:51:21;;;;;;;6.30;2.70;;;;;;;10.39;79.85;98678.38;5085830;28;20052;-77
2022/10/04 04:53:48;;;;;;;7.40;2.15;;;;;;;10.41;79.32;98678.91;5081804;28;20028;-77
2022/10/04 04:56:20;;;;;;;6.05;2.20;;;;;;;10.43;79.47;98682.97;5068379;28;20035;-76
2022/10/04 04:58:47;;;;;;;6.68;2.78;;;;;;;10.46;79.73;98687.06;5084334;28;20109;-78
2022/10/04 05:01:35;;;;;;;11.20;4.10;;;;;;;10.46;79.02;98688.97;5072495;28;20032;-79
2022/10/04 05:04:08;;;;;;;16.65;4.80;;;;;;;10.48;79.30;98698.56;5084394;28;20139;-79
2022/10/04 05:06:35;;;;;;;13.68;5.03;;;;;;;10.49;79.59;98693.91;5086080;28;20044;-77
2022/10/04 05:09:00;;;;;;;11.05;4.30;;;;;;;10.49;79.71;98693.91;5085959;28;20043;-78
2022/10/04 05:11:36;;;;;;;6.63;2.53;;;;;;;10.50;79.36;98693.63;5081000;28;20036;-77
2022/10/04 05:14:14;;;;;;;7.65;2.83;;;;;;;10.51;79.80;98694.41;5086846;28;20024;-79
2022/10/04 05:16:51;;;;;;;10.85;2.75;;;;;;;10.47;79.34;98707.06;5087180;28;20016;-78
2022/10/04 05:19:23;;;;;;;8.55;3.00;;;;;;;10.44;79.29;98703.00;5058013;28;20464;-79
2022/10/04 05:21:51;;;;;;;5.65;2.40;;;;;;;10.42;79.56;98719.72;5075498;28;20027;-77
2022/10/04 05:24:25;;;;;;;7.32;2.08;;;;;;;10.38;79.69;98718.66;5083374;28;20057;-77
2022/10/04 05:26:54;;;;;;;6.30;2.30;;;;;;;10.36;79.59;98725.53;5084319;28;20111;-77
2022/10/04 05:29:23;;;;;;;6.20;1.90;;;;;;;10.33;79.24;98724.19;5083641;28;20085;-77
2022/10/04 05:31:49;;;;;;;;;;;;;;;10.30;78.99;98722.03;5085063;28;20032;-77
2022/10/04 05:34:22;;;;;;;5.95;2.05;;;;;;;10.30;79.48;98727.50;5081985;28;19912;-77
2022/10/04 05:36:54;;;;;;;5.03;2.00;;;;;;;10.25;78.75;98735.75;5082934;28;20028;-77
2022/10/04 05:39:32;;;;;;;4.32;1.83;;;;;;;10.17;79.44;98734.47;5084650;28;20023;-77
2022/10/04 05:42:16;;;;;;;7.32;2.70;;;;;;;10.11;79.34;98736.41;5086143;28;20093;-77
2022/10/04 05:44:57;;;;;;;9.13;3.17;;;;;;;10.07;79.40;98743.56;5064560;28;20031;-77
2022/10/04 05:47:27;;;;;;;7.82;2.10;;;;;;;10.07;79.35;98745.50;5085391;28;20047;-77
2022/10/04 05:49:56;;;;;;;6.53;2.10;;;;;;;10.05;79.28;98753.19;5085367;28;20032;-77
2022/10/04 05:52:29;;;;;;;8.90;2.15;;;;;;;10.04;78.56;98757.03;5084345;28;20031;-77
2022/10/04 05:55:22;;;;;;;6.07;1.80;;;;;;;10.01;79.01;98760.34;5085712;28;20036;-77
2022/10/04 05:58:17;;;;;;;5.72;2.00;;;;;;;9.98;79.37;98761.75;5085792;28;20085;-77
2022/10/04 06:01:15;;;;;;;3.72;1.60;;;;;;;9.96;79.78;98750.25;5085790;28;20523;-77
2022/10/04 06:03:41;;;;;;;6.20;1.63;;;;;;;10.00;79.05;98756.78;5084965;28;20031;-77
2022/10/04 06:06:23;;;;;;;14.93;4.75;;;;;;;10.01;79.40;98761.16;5086211;28;20395;-77
2022/10/04 06:09:04;;;;;;;4.97;2.45;;;;;;;10.00;78.61;98770.47;5085666;28;20032;-77
2022/10/04 06:11:51;;;;;;;6.45;1.73;;;;;;;10.01;79.64;98769.38;5085556;28;20119;-76
2022/10/04 06:14:31;;;;;;;7.90;1.85;;;;;;;10.05;79.30;98772.38;5083080;28;20059;-77
2022/10/04 06:16:56;;;;;;;5.65;1.60;;;;;;;10.09;78.89;98777.00;5085930;28;20047;-77
2022/10/04 06:20:02;;;;;;;7.35;1.98;;;;;;;10.15;79.19;98772.31;5084674;28;20036;-76
2022/10/04 06:22:27;;;;;;;8.85;2.47;;;;;;;10.23;79.52;98768.13;5085096;28;20027;-76
2022/10/04 06:25:06;;;;;;;11.30;2.97;;;;;;;10.25;79.55;98782.38;5086302;28;20369;-77
2022/10/04 06:27:32;;;;;;;6.05;1.98;;;;;;;10.31;79.55;98780.41;5085294;28;20564;-77
2022/10/04 06:30:05;;;;;;;22.40;9.30;;;;;;;10.32;79.51;98788.34;5084208;28;20028;-76
2022/10/04 06:32:58;;;;;;;86.10;26.85;;;;;;;10.35;78.84;98787.78;5085699;28;20035;-76
2022/10/04 06:36:04;;;;;;;8.57;3.80;;;;;;;10.36;79.15;98789.41;5084302;28;20587;-77
2022/10/04 06:39:02;;;;;;;10.55;3.55;;;;;;;10.35;79.70;98795.16;5085290;28;20036;-76
2022/10/04 06:41:41;;;;;;;9.15;2.75;;;;;;;10.37;78.89;98804.75;5084302;28;20039;-76
2022/10/04 06:44:49;;;;;;;12.98;3.70;;;;;;;10.40;79.41;98798.72;5085432;28;20036;-76
2022/10/04 06:47:31;;;;;;;7.38;2.25;;;;;;;10.43;79.32;98808.31;5045926;28;20063;-76
2022/10/04 06:50:21;;;;;;;5.47;1.83;;;;;;;10.42;79.15;98809.41;5084475;28;20039;-76
2022/10/04 06:53:14;;;;;;;5.75;2.00;;;;;;;10.43;79.49;98817.31;5081651;28;20058;-77
2022/10/04 06:56:01;;;;;;;10.23;2.92;;;;;;;10.52;79.05;98820.28;5085359;28;20625;-77
2022/10/04 06:58:45;;;;;;;17.90;7.10;;;;;;;10.58;78.86;98832.03;5084538;28;20032;-77
2022/10/04 07:01:26;;;;;;;9.82;2.60;;;;;;;10.63;79.84;98829.25;5083984;28;20476;-77
2022/10/04 07:04:40;;;;;;;11.40;2.85;;;;;;;10.66;79.05;98828.69;5083827;28;20563;-76
2022/10/04 07:07:23;;;;;;;8.70;2.20;;;;;;;10.74;78.87;98840.16;5067894;28;20048;-77
2022/10/04 07:10:02;;;;;;;8.73;2.47;;;;;;;10.80;79.43;98837.06;5064037;28;20024;-77
2022/10/04 07:12:32;;;;;;;9.43;1.63;;;;;;;10.88;79.36;98835.59;5084704;28;20032;-77
2022/10/04 07:15:02;;;;;;;5.50;1.48;;;;;;;10.91;79.28;98837.78;5084877;28;20129;-77
2022/10/04 07:17:38;;;;;;;19.65;5.35;;;;;;;10.95;78.81;98843.53;5084728;28;20476;-77
2022/10/04 07:20:06;;;;;;;12.07;3.33;;;;;;;10.97;78.75;98846.78;5082498;28;20035;-77
2022/10/04 07:22:45;;;;;;;25.08;5.85;;;;;;;11.03;78.69;98845.59;5082957;28;20039;-78
2022/10/04 07:25:26;;;;;;;8.32;2.50;;;;;;;11.11;78.72;98844.19;5082306;28;20511;-78
2022/10/04 07:31:28;;;;;;;5.78;1.70;;;;;;;11.28;78.43;98852.75;5081967;28;20089;-79
2022/10/04 07:33:59;;;;;;;6.95;2.10;;;;;;;11.28;77.39;98861.00;5081161;28;20032;-80
2022/10/04 07:36:38;;;;;;;9.15;2.85;;;;;;;11.32;78.24;98853.81;5058749;28;20054;-73
2022/10/04 07:39:12;;;;;;;5.75;1.65;;;;;;;11.35;77.77;98862.59;5072969;28;20137;-76
2022/10/04 07:41:51;;;;;;;4.55;1.30;;;;;;;11.39;77.62;98860.91;5080664;28;20032;-75
2022/10/04 07:44:24;;;;;;;5.75;1.38;;;;;;;11.42;77.41;98852.88;5073289;28;20044;-74
2022/10/04 07:47:21;;;;;;;4.25;1.10;;;;;;;11.42;76.88;98865.81;5077220;28;20090;-75
2022/10/04 07:49:49;;;;;;;7.45;1.70;;;;;;;11.36;76.05;98867.81;5074819;28;20510;-74
2022/10/04 07:52:20;;;;;;;4.97;1.15;;;;;;;11.36;76.44;98869.72;5078565;28;20029;-77
2022/10/04 07:55:04;;;;;;;4.93;1.00;;;;;;;11.38;76.84;98870.25;5081714;28;20472;-76
2022/10/04 07:57:39;;;;;;;4.60;2.25;;;;;;;11.38;76.64;98867.50;5082035;28;20043;-76
2022/10/04 08:00:18;;;;;;;7.32;2.35;;;;;;;11.41;76.07;98875.16;5058682;28;20567;-77
2022/10/04 08:03:17;;;;;;;13.35;4.15;;;;;;;11.48;75.55;98881.13;5080830;28;20058;-76
2022/10/04 08:06:32;;;;;;;16.88;5.07;;;;;;;11.45;75.80;98876.22;5079026;28;20028;-80
2022/10/04 08:09:36;;;;;;;8.82;3.00;;;;;;;11.43;75.84;98879.22;5071356;28;20166;-75
2022/10/04 08:12:07;;;;;;;10.10;2.38;;;;;;;11.47;75.68;98884.97;5080108;28;20035;-77
2022/10/04 08:14:44;;;;;;;14.35;3.38;;;;;;;11.54;76.30;98882.72;5064227;28;20028;-77
2022/10/04 08:17:25;;;;;;;11.35;3.60;;;;;;;11.59;75.97;98879.91;5082061;28;20020;-78
2022/10/04 08:20:10;;;;;;;8.95;2.60;;;;;;;11.62;75.24;98894.97;5077499;28;20033;-77
2022/10/04 08:22:56;;;;;;;5.93;1.90;;;;;;;11.65;75.04;98890.81;5049344;28;20036;-76
2022/10/04 08:25:55;;;;;;;6.63;1.35;;;;;;;11.65;75.23;98901.81;5042573;28;20125;-78
2022/10/04 08:31:47;;;;;;;5.35;1.15;;;;;;;11.81;74.80;98902.47;5075703;28;20093;-76
2022/10/04 08:34:43;;;;;;;5.97;1.33;;;;;;;11.84;73.74;98897.19;5059835;28;20383;-74
2022/10/04 08:37:22;;;;;;;6.13;2.20;;;;;;;11.94;74.20;98900.94;5079455;28;20075;-75
2022/10/04 08:40:15;;;;;;;4.32;1.20;;;;;;;12.04;74.46;98903.56;5076308;28;20028;-74
2022/10/04 08:42:49;;;;;;;6.00;2.17;;;;;;;12.12;74.51;98905.66;5075786;28;20031;-77
2022/10/04 08:45:46;;;;;;;9.75;4.20;;;;;;;12.18;74.47;98909.16;5063126;28;20076;-74
2022/10/04 08:48:24;;;;;;;7.45;1.90;;;;;;;12.15;74.07;98907.00;5080344;28;20047;-74
2022/10/04 08:51:26;;;;;;;9.20;2.28;;;;;;;12.09;73.53;98914.47;5078535;28;20029;-75
2022/10/04 08:54:17;;;;;;;3.88;1.38;;;;;;;12.04;72.24;98906.31;5074842;28;20024;-75
2022/10/04 08:57:11;;;;;;;2.60;1.08;;;;;;;11.99;72.44;98909.94;5077968;28;20028;-74
2022/10/04 09:00:00;;;;;;;7.28;1.35;;;;;;;12.00;73.15;98905.28;5078055;28;20036;-73
2022/10/04 09:03:07;;;;;;;3.03;1.20;;;;;;;12.03;72.08;98904.66;5077752;28;20048;-74
2022/10/04 09:05:36;;;;;;;5.00;1.50;;;;;;;12.09;72.34;98894.44;5062297;28;20036;-73
2022/10/04 09:08:10;;;;;;;4.78;1.33;;;;;;;12.18;71.82;98898.16;5079005;28;20051;-76
2022/10/04 09:10:54;;;;;;;3.70;1.38;;;;;;;12.29;71.92;98904.34;5080586;28;20048;-76
2022/10/04 09:13:48;;;;;;;4.65;2.17;;;;;;;12.45;71.89;98907.69;5076888;28;20050;-77
2022/10/04 09:16:25;;;;;;;4.75;1.80;;;;;;;12.56;71.62;98911.09;5080055;28;20028;-76
2022/10/04 09:19:20;;;;;;;3.22;1.52;;;;;;;12.67;71.66;98904.31;5081266;28;21412;-76
2022/10/04 09:21:45;;;;;;;6.82;3.13;;;;;;;12.78;71.27;98914.06;5078424;28;20085;-76
2022/10/04 09:24:35;;;;;;;6.93;3.97;;;;;;;12.82;69.47;98919.78;5079831;28;20032;-76
2022/10/04 09:27:35;;;;;;;6.10;3.90;;;;;;;12.85;70.58;98921.91;5082048;28;20040;-80
2022/10/04 09:30:39;;;;;;;4.05;1.60;;;;;;;12.86;70.01;98928.22;5039195;28;20083;-74
2022/10/04 09:33:10;;;;;;;9.05;4.32;;;;;;;12.79;70.13;98934.97;4988231;28;20065;-75
2022/10/04 09:35:44;;;;;;;4.63;1.50;;;;;;;12.73;69.31;98930.66;5066152;28;20106;-76
2022/10/04 09:38:46;;;;;;;5.53;2.15;;;;;;;12.65;69.15;98931.31;5084266;28;20028;-75
2022/10/04 09:41:30;;;;;;;5.43;1.92;;;;;;;12.64;69.87;98927.72;5081332;28;20067;-75
2022/10/04 09:44:18;;;;;;;8.57;2.50;;;;;;;12.71;70.39;98930.13;5080563;28;20044;-76
2022/10/04 09:47:03;;;;;;;4.40;1.10;;;;;;;12.79;69.33;98929.47;5069239;28;20048;-74
2022/10/04 09:49:50;;;;;;;8.77;2.97;;;;;;;12.92;69.82;98925.13;5080995;28;20031;-75
2022/10/04 09:52:27;;;;;;;4.72;1.38;;;;;;;13.06;67.93;98933.41;5079873;28;20036;-74
2022/10/04 09:55:27;;;;;;;5.32;1.30;;;;;;;13.12;68.71;98928.63;5077144;28;20032;-75
2022/10/04 09:57:52;;;;;;;;;;;;;;;13.21;68.28;98937.84;5078212;28;20028;-74
2022/10/04 10:00:23;;;;;;;3.53;1.27;;;;;;;13.23;67.83;98934.81;5079756;28;19951;-72
2022/10/04 10:03:07;;;;;;;2.72;1.05;;;;;;;13.24;67.51;98937.25;5079827;28;20380;-73
2022/10/04 10:05:48;;;;;;;5.47;1.58;;;;;;;13.31;67.78;98950.59;5082343;28;20054;-75
2022/10/04 10:08:44;;;;;;;6.38;1.23;;;;;;;13.38;67.86;98947.47;5058083;28;20048;-74
2022/10/04 10:14:25;;;;;;;3.80;1.45;;;;;;;13.51;66.78;98954.97;5076964;28;20039;-74
2022/10/04 10:16:52;;;;;;;2.22;0.88;;;;;;;13.57;66.95;98952.13;5078110;28;20028;-75
2022/10/04 10:19:32;;;;;;;4.35;1.25;;;;;;;13.62;66.49;98961.13;5079954;28;20020;-75
2022/10/04 10:22:13;;;;;;;5.78;1.45;;;;;;;13.65;66.05;98965.19;5080798;28;20825;-74
2022/10/04 10:24:53;;;;;;;4.65;1.38;;;;;;;13.71;66.11;98966.75;5080459;28;20062;-75
2022/10/04 10:28:01;;;;;;;3.47;0.98;;;;;;;13.80;63.41;98967.69;5076266;28;20131;-76
2022/10/04 10:30:38;;;;;;;3.20;0.80;;;;;;;13.86;64.53;98968.38;5075426;28;20032;-77
2022/10/04 10:33:39;;;;;;;3.17;0.75;;;;;;;13.95;64.43;98960.22;5078399;28;20036;-76
2022/10/04 10:36:27;;;;;;;6.28;1.40;;;;;;;14.06;64.36;98958.88;5083313;28;20032;-77
2022/10/04 10:39:08;;;;;;;4.03;1.00;;;;;;;14.13;62.60;98970.34;5083169;28;20024;-75
2022/10/04 10:41:53;;;;;;;2.80;1.00;;;;;;;14.11;63.98;98971.75;5080645;28;20119;-75
2022/10/04 10:44:33;;;;;;;3.95;0.85;;;;;;;14.06;63.60;98969.13;5079316;28;20485;-76
2022/10/04 10:47:14;;;;;;;6.50;1.30;;;;;;;14.01;63.84;98967.25;5078624;28;20067;-77
2022/10/04 10:49:43;;;;;;;4.18;1.10;;;;;;;14.03;63.64;98966.97;5080664;28;20128;-74
2022/10/04 10:52:31;;;;;;;4.25;0.85;;;;;;;14.12;63.51;98959.59;5080068;28;20741;-73
2022/10/04 10:55:15;;;;;;;2.88;1.05;;;;;;;14.25;62.74;98969.81;5075851;28;20057;-72
2022/10/04 10:58:08;;;;;;;2.05;0.90;;;;;;;14.26;62.05;98963.16;5063648;28;20028;-75
2022/10/04 11:01:03;;;;;;;3.80;1.20;;;;;;;14.22;61.46;98966.88;5063477;28;20186;-73
2022/10/04 11:03:59;;;;;;;2.25;0.90;;;;;;;14.11;60.93;98975.34;5058924;28;20676;-72
2022/10/04 11:07:02;;;;;;;7.75;2.90;;;;;;;14.07;60.84;98976.25;5080205;28;20039;-72
2022/10/04 11:09:30;;;;;;;4.22;1.13;;;;;;;14.07;61.19;98976.25;5079529;28;21655;-74
2022/10/04 11:12:03;;;;;;;3.28;0.90;;;;;;;14.08;61.32;98977.88;5082056;28;20168;-72
2022/10/04 11:14:36;;;;;;;4.47;1.80;;;;;;;14.13;61.55;98972.25;5082084;28;20028;-72
2022/10/04 11:17:28;;;;;;;2.28;0.82;;;;;;;14.22;60.69;98970.41;5084153;28;20043;-72
2022/10/04 11:19:56;;;;;;;2.67;0.80;;;;;;;14.34;61.19;98974.59;5063858;28;20028;-72
2022/10/04 11:22:43;;;;;;;4.90;1.30;;;;;;;14.42;59.78;98982.16;5080848;28;20028;-72
2022/10/04 11:25:33;;;;;;;2.97;0.77;;;;;;;14.47;60.03;98970.97;5084498;28;20028;-73
2022/10/04 11:28:06;;;;;;;2.70;0.93;;;;;;;14.56;60.20;98971.91;5084240;28;20484;-73
2022/10/04 11:31:08;;;;;;;2.72;1.10;;;;;;;14.67;59.25;98971.66;5083205;28;20038;-72
2022/10/04 11:34:11;;;;;;;2.85;0.90;;;;;;;14.78;59.26;98981.41;5076368;28;20044;-72
2022/10/04 11:37:15;;;;;;;1.80;0.70;;;;;;;14.86;58.55;98972.38;5078250;28;20039;-71
2022/10/04 11:40:05;;;;;;;2.80;0.90;;;;;;;14.97;59.64;98978.47;5083160;28;20046;-72
2022/10/04 11:43:04;;;;;;;2.03;0.60;;;;;;;15.07;58.95;98971.06;5065014;28;20492;-70
2022/10/04 11:45:59;;;;;;;3.77;1.00;;;;;;;15.20;59.50;98974.88;5082046;28;20052;-71
2022/10/04 11:48:52;;;;;;;2.35;0.70;;;;;;;15.26;58.29;98976.41;5082510;28;20031;-72
2022/10/04 11:51:56;;;;;;;2.38;0.80;;;;;;;15.25;58.71;98974.75;5080439;28;20560;-72
2022/10/04 11:54:43;;;;;;;3.58;0.80;;;;;;;15.31;59.01;98979.84;5081077;28;20027;-73
2022/10/04 11:57:08;;;;;;;2.30;0.75;;;;;;;15.36;58.12;98978.09;5083600;28;20024;-72
2022/10/04 12:00:13;;;;;;;4.95;1.17;;;;;;;15.33;58.92;98971.22;5082517;28;20972;-72
2022/10/04 12:03:04;;;;;;;5.38;1.20;;;;;;;15.32;58.17;98978.72;5084016;28;20093;-72
2022/10/04 12:06:07;;;;;;;2.90;0.70;;;;;;;15.22;57.47;98984.47;5083317;28;20059;-71
2022/10/04 12:08:35;;;;;;;3.65;0.88;;;;;;;15.07;57.46;98982.13;5083571;28;20040;-72
2022/10/04 12:11:23;;;;;;;4.20;0.88;;;;;;;14.93;57.79;98987.66;5082548;28;20487;-72
2022/10/04 12:13:51;;;;;;;5.25;1.30;;;;;;;14.80;57.92;98989.34;5080190;28;20115;-72
2022/10/04 12:16:28;;;;;;;4.65;1.05;;;;;;;14.68;58.10;98990.66;5082680;28;20042;-72
2022/10/04 12:19:04;;;;;;;6.45;2.22;;;;;;;14.62;58.83;98993.88;5082463;28;20031;-72
2022/10/04 12:21:39;;;;;;;15.25;3.78;;;;;;;14.59;59.27;98992.56;5082283;28;20078;-73
2022/10/04 12:24:21;;;;;;;16.40;4.40;;;;;;;14.59;58.87;98987.84;5084166;28;20488;-72
2022/10/04 12:27:02;;;;;;;8.35;2.20;;;;;;;14.67;59.82;98991.00;5081302;28;20400;-73
2022/10/04 12:29:52;;;;;;;5.18;1.90;;;;;;;14.74;58.96;98988.66;5082504;28;20173;-72
2022/10/04 12:32:31;;;;;;;8.40;2.38;;;;;;;14.83;58.39;98988.72;5079818;28;20044;-72
2022/10/04 12:35:08;;;;;;;5.38;1.80;;;;;;;14.92;58.34;98977.75;5082800;28;20168;-71
2022/10/04 12:37:33;;;;;;;6.38;2.47;;;;;;;15.06;57.03;98989.56;5083363;28;20074;-72
2022/10/04 12:40:11;;;;;;;24.00;8.38;;;;;;;15.26;57.50;98987.44;5082117;28;20759;-72